Time;durP1;ratioP1;P1;durP2;ratioP2;P2;SDS_P1;SDS_P2;PMS_P1;PMS_P2;Temp;Humidity;BMP_temperature;BMP_pressure;BME280_temperature;BME280_humidity;BME280_pressure;Samples;Min_cycle;Max_cycle;Signal;HPM_P1;HPM_P2
2021/10/12 00:02:07;;;;;;;;;;;;;;;13.76;92.01;99781.38;5088893;28;19984;-20
2021/10/12 00:04:32;;;;;;;;;;;;;;;13.58;92.22;99779.78;5089459;28;20038;-19
2021/10/12 00:06:58;;;;;;;;;;;;;;;13.59;92.19;99765.34;5089122;28;19920;-19
2021/10/12 00:09:23;;;;;;;;;;;;;;;13.48;93.09;99760.06;5089016;28;19916;-19
2021/10/12 00:11:49;;;;;;;;;;;;;;;13.48;92.95;99752.03;5089050;28;19916;-19
2021/10/12 00:14:14;;;;;;;;;;;;;;;13.43;92.86;99755.44;5088863;28;19915;-19
2021/10/12 00:16:40;;;;;;;;;;;;;;;13.21;93.86;99745.44;5088896;28;19912;-19
2021/10/12 00:19:05;;;;;;;;;;;;;;;13.21;94.43;99742.75;5088437;28;19916;-19
2021/10/12 00:21:30;;;;;;;;;;;;;;;13.36;93.50;99738.72;5088706;28;19911;-19
2021/10/12 00:23:55;;;;;;;;;;;;;;;13.55;91.87;99737.41;5070640;28;19919;-19
2021/10/12 00:26:21;;;;;;;;;;;;;;;13.81;90.95;99743.94;5092062;28;20295;-19
2021/10/12 00:28:46;;;;;;;;;;;;;;;13.81;90.49;99753.81;5092375;28;19912;-19
2021/10/12 00:31:12;;;;;;;;;;;;;;;13.75;90.49;99758.31;5091775;28;19918;-20
2021/10/12 00:33:37;;;;;;;;;;;;;;;13.35;92.17;99758.53;5092332;28;19920;-19
2021/10/12 00:36:02;;;;;;;;;;;;;;;13.35;92.43;99763.91;5092062;28;19978;-21
2021/10/12 00:38:28;;;;;;;;;;;;;;;13.30;92.98;99777.19;5092265;28;20295;-20
2021/10/12 00:40:53;;;;;;;;;;;;;;;13.29;93.23;99767.53;5092276;28;19916;-19
2021/10/12 00:43:25;;;;;;;;;;;;;;;13.27;93.50;99768.56;5091806;28;20337;-19
2021/10/12 00:45:50;;;;;;;;;;;;;;;13.45;92.68;99758.69;5074943;28;19930;-19
2021/10/12 00:48:16;;;;;;;;;;;;;;;13.35;92.38;99748.63;5091860;28;20010;-19
2021/10/12 00:50:41;;;;;;;;;;;;;;;13.15;93.88;99737.56;5092106;28;19915;-19
2021/10/12 00:53:06;;;;;;;;;;;;;;;13.15;94.40;99727.66;5091590;28;19912;-19
2021/10/12 00:55:32;;;;;;;;;;;;;;;13.23;93.51;99711.19;5073165;28;19916;-19
2021/10/12 00:57:57;;;;;;;;;;;;;;;13.15;93.75;99719.63;5091242;28;19912;-20
2021/10/12 01:00:23;;;;;;;;;;;;;;;13.15;93.85;99719.63;5091415;28;20461;-21
2021/10/12 01:02:48;;;;;;;;;;;;;;;13.27;93.19;99715.00;5090941;28;19915;-20
2021/10/12 01:05:13;;;;;;;;;;;;;;;13.46;92.74;99717.44;5090675;28;20315;-20
2021/10/12 01:07:39;;;;;;;;;;;;;;;13.64;91.15;99714.47;5090889;28;20326;-19
2021/10/12 01:10:04;;;;;;;;;;;;;;;13.95;89.21;99709.50;5091335;28;19969;-19
2021/10/12 01:12:30;;;;;;;;;;;;;;;13.84;89.69;99705.91;5091378;28;20673;-20
2021/10/12 01:14:55;;;;;;;;;;;;;;;13.55;90.59;99694.53;5091394;28;20006;-19
2021/10/12 01:17:20;;;;;;;;;;;;;;;13.65;91.07;99675.94;5091349;28;19922;-20
2021/10/12 01:19:46;;;;;;;;;;;;;;;13.74;89.77;99670.94;5091501;28;20411;-20
2021/10/12 01:22:12;;;;;;;;;;;;;;;13.51;90.65;99666.63;5091526;28;20018;-20
2021/10/12 01:24:37;;;;;;;;;;;;;;;13.65;90.50;99667.09;5091316;28;19916;-20
2021/10/12 01:27:02;;;;;;;;;;;;;;;13.63;90.22;99675.38;5091280;28;19988;-20
2021/10/12 01:29:28;;;;;;;;;;;;;;;13.54;90.68;99679.50;5073214;28;20593;-20
2021/10/12 01:31:53;;;;;;;;;;;;;;;13.53;91.55;99680.59;5091523;28;19916;-20
2021/10/12 01:34:19;;;;;;;;;;;;;;;13.34;91.63;99693.47;5089766;28;19955;-19
2021/10/12 01:36:44;;;;;;;;;;;;;;;13.54;91.09;99703.63;5090090;28;19955;-20
2021/10/12 01:39:10;;;;;;;;;;;;;;;13.31;91.89;99709.19;5090850;28;19912;-20
2021/10/12 01:41:35;;;;;;;;;;;;;;;13.15;93.50;99711.59;5090957;28;19984;-19
2021/10/12 01:44:00;;;;;;;;;;;;;;;13.21;93.35;99705.28;5072786;28;20007;-19
2021/10/12 01:46:26;;;;;;;;;;;;;;;13.23;93.37;99694.31;5091064;28;20416;-20
2021/10/12 01:48:52;;;;;;;;;;;;;;;13.34;92.64;99696.13;5090697;28;19912;-20
2021/10/12 01:51:17;;;;;;;;;;;;;;;13.37;92.51;99684.13;5090410;28;19916;-20
2021/10/12 01:53:42;;;;;;;;;;;;;;;13.49;91.36;99687.50;5090969;28;19918;-21
2021/10/12 01:56:08;;;;;;;;;;;;;;;13.63;91.00;99688.75;5090956;28;19920;-19
2021/10/12 01:58:34;;;;;;;;;;;;;;;13.79;90.24;99688.94;5091082;28;19916;-20
2021/10/12 02:00:59;;;;;;;;;;;;;;;13.76;89.40;99678.72;5090418;28;19923;-20
2021/10/12 02:03:25;;;;;;;;;;;;;;;13.88;88.88;99676.75;5090468;28;20307;-19
2021/10/12 02:05:50;;;;;;;;;;;;;;;14.01;88.34;99668.28;5090564;28;19912;-19
2021/10/12 02:08:15;;;;;;;;;;;;;;;13.90;88.79;99663.91;5090393;28;19919;-19
2021/10/12 02:10:41;;;;;;;;;;;;;;;13.79;89.43;99646.88;5090286;28;19916;-20
2021/10/12 02:13:06;;;;;;;;;;;;;;;13.63;90.46;99643.22;5090221;28;20375;-20
2021/10/12 02:15:31;;;;;;;;;;;;;;;13.88;89.90;99633.03;5090146;28;19916;-20
2021/10/12 02:17:57;;;;;;;;;;;;;;;13.82;89.36;99630.28;5090583;28;19923;-20
2021/10/12 02:20:23;;;;;;;;;;;;;;;13.72;89.76;99635.53;5090309;28;20378;-20
2021/10/12 02:22:48;;;;;;;;;;;;;;;13.98;89.09;99628.59;5090192;28;19972;-21
2021/10/12 02:25:13;;;;;;;;;;;;;;;14.20;87.54;99635.78;5089911;28;19920;-20
2021/10/12 02:27:39;;;;;;;;;;;;;;;14.18;88.00;99628.00;5090476;28;19927;-19
2021/10/12 02:30:05;;;;;;;;;;;;;;;13.98;88.02;99607.16;5089899;28;19920;-19
2021/10/12 02:32:30;;;;;;;;;;;;;;;14.14;86.76;99609.97;5089756;28;19993;-20
2021/10/12 02:34:56;;;;;;;;;;;;;;;14.21;86.18;99605.22;5089913;28;20333;-19
2021/10/12 02:37:21;;;;;;;;;;;;;;;14.13;86.90;99608.38;5088484;28;19916;-20
2021/10/12 02:39:46;;;;;;;;;;;;;;;14.14;87.05;99600.06;5089977;28;19916;-19
2021/10/12 02:42:12;;;;;;;;;;;;;;;14.31;86.22;99605.31;5090095;28;19969;-19
2021/10/12 02:44:37;;;;;;;;;;;;;;;14.10;86.92;99603.50;5071990;28;19916;-20
2021/10/12 02:47:02;;;;;;;;;;;;;;;13.94;87.93;99589.16;5089708;28;20269;-20
2021/10/12 02:49:28;;;;;;;;;;;;;;;13.97;87.93;99589.44;5089503;28;19920;-20
2021/10/12 02:51:53;;;;;;;;;;;;;;;13.78;89.45;99580.13;5089616;28;19965;-19
2021/10/12 02:54:18;;;;;;;;;;;;;;;13.98;88.25;99569.63;5089746;28;19912;-20
2021/10/12 02:56:43;;;;;;;;;;;;;;;14.09;87.57;99554.44;5089372;28;20007;-20
2021/10/12 02:59:09;;;;;;;;;;;;;;;13.93;87.99;99556.16;5089663;28;19981;-20
2021/10/12 03:01:34;;;;;;;;;;;;;;;13.99;87.24;99549.78;5089437;28;19916;-20
2021/10/12 03:03:59;;;;;;;;;;;;;;;13.83;88.29;99566.78;5089441;28;19908;-20
2021/10/12 03:06:25;;;;;;;;;;;;;;;14.09;87.40;99561.69;5089666;28;20100;-20
2021/10/12 03:08:50;;;;;;;;;;;;;;;13.97;87.46;99562.63;5089470;28;20032;-26
2021/10/12 03:11:15;;;;;;;;;;;;;;;13.91;88.01;99555.59;5089328;28;19919;-20
2021/10/12 03:13:41;;;;;;;;;;;;;;;14.08;87.38;99555.50;5089444;28;19947;-20
2021/10/12 03:16:07;;;;;;;;;;;;;;;13.73;89.15;99555.94;5089444;28;20354;-20
2021/10/12 03:18:33;;;;;;;;;;;;;;;13.70;89.09;99551.09;5089221;28;19969;-20
2021/10/12 03:20:58;;;;;;;;;;;;;;;14.07;87.45;99552.00;5070986;28;19912;-19
2021/10/12 03:23:24;;;;;;;;;;;;;;;14.32;85.47;99553.28;5089438;28;20403;-20
2021/10/12 03:25:49;;;;;;;;;;;;;;;14.30;85.78;99558.09;5089268;28;19947;-20
2021/10/12 03:28:14;;;;;;;;;;;;;;;14.36;85.95;99559.75;5089231;28;19916;-19
2021/10/12 03:30:39;;;;;;;;;;;;;;;14.36;85.87;99565.13;5089416;28;19974;-20
2021/10/12 03:33:05;;;;;;;;;;;;;;;14.11;86.16;99556.88;5089101;28;20663;-19
2021/10/12 03:35:36;;;;;;;;;;;;;;;13.96;87.25;99561.03;5089118;28;19916;-20
2021/10/12 03:38:01;;;;;;;;;;;;;;;14.25;85.69;99560.75;5089146;28;20367;-20
2021/10/12 03:40:27;;;;;;;;;;;;;;;14.17;86.20;99574.63;5089564;28;20533;-20
2021/10/12 03:42:52;;;;;;;;;;;;;;;14.01;86.76;99562.94;5089209;28;19916;-20
2021/10/12 03:45:17;;;;;;;;;;;;;;;13.69;88.27;99554.84;5088868;28;19922;-19
2021/10/12 03:47:43;;;;;;;;;;;;;;;13.65;88.57;99552.66;5089280;28;19920;-19
2021/10/12 03:50:08;;;;;;;;;;;;;;;13.57;89.44;99553.13;5089183;28;20008;-20
2021/10/12 03:52:33;;;;;;;;;;;;;;;13.63;89.23;99549.44;5089274;28;19916;-20
2021/10/12 03:54:59;;;;;;;;;;;;;;;13.35;90.49;99550.44;5088668;28;19923;-20
2021/10/12 03:57:24;;;;;;;;;;;;;;;13.45;90.41;99547.09;5089597;28;20431;-20
2021/10/12 03:59:49;;;;;;;;;;;;;;;13.44;90.69;99532.06;5090033;28;19918;-19
2021/10/12 04:02:15;;;;;;;;;;;;;;;13.60;89.98;99533.84;5092880;28;20287;-20
2021/10/12 04:04:40;;;;;;;;;;;;;;;13.83;88.62;99537.28;5092676;28;19951;-19
2021/10/12 04:07:05;;;;;;;;;;;;;;;13.59;89.03;99539.47;5092596;28;19919;-20
2021/10/12 04:09:31;;;;;;;;;;;;;;;13.44;89.83;99532.06;5092825;28;20311;-20
2021/10/12 04:11:56;;;;;;;;;;;;;;;13.40;90.56;99530.94;5092903;28;19915;-20
2021/10/12 04:14:22;;;;;;;;;;;;;;;13.59;89.96;99529.56;5092611;28;19912;-19
2021/10/12 04:16:47;;;;;;;;;;;;;;;13.92;88.50;99535.78;5092795;28;19916;-19
2021/10/12 04:19:12;;;;;;;;;;;;;;;13.73;88.94;99542.56;5092177;28;20329;-20
2021/10/12 04:21:37;;;;;;;;;;;;;;;13.80;88.63;99541.28;5092396;28;20002;-20
2021/10/12 04:24:04;;;;;;;;;;;;;;;13.56;89.12;99538.09;5092476;28;19916;-20
2021/10/12 04:26:29;;;;;;;;;;;;;;;13.82;88.27;99543.72;5092392;28;20342;-20
2021/10/12 04:28:54;;;;;;;;;;;;;;;13.74;88.36;99531.59;5092235;28;20466;-20
2021/10/12 04:31:20;;;;;;;;;;;;;;;13.63;88.93;99536.03;5091922;28;19912;-20
2021/10/12 04:33:45;;;;;;;;;;;;;;;13.76;88.23;99529.47;5092396;28;19927;-20
2021/10/12 04:36:10;;;;;;;;;;;;;;;13.51;89.66;99516.63;5092361;28;20015;-20
2021/10/12 04:38:35;;;;;;;;;;;;;;;13.51;89.87;99513.13;5092030;28;19912;-20
2021/10/12 04:41:02;;;;;;;;;;;;;;;13.31;90.65;99511.84;5092096;28;20006;-21
2021/10/12 04:43:27;;;;;;;;;;;;;;;13.36;90.46;99505.72;5092564;28;20422;-20
2021/10/12 04:45:52;;;;;;;;;;;;;;;13.56;90.30;99503.25;5074457;28;19923;-20
2021/10/12 04:48:18;;;;;;;;;;;;;;;13.74;88.96;99501.31;5092458;28;19916;-19
2021/10/12 04:50:43;;;;;;;;;;;;;;;13.61;89.39;99495.28;5091885;28;19916;-19
2021/10/12 04:53:08;;;;;;;;;;;;;;;13.03;91.97;99504.78;5092011;28;19916;-20
2021/10/12 04:55:34;;;;;;;;;;;;;;;12.98;92.89;99496.69;5092019;28;19919;-20
2021/10/12 04:58:00;;;;;;;;;;;;;;;13.02;93.03;99503.16;5091914;28;19912;-19
2021/10/12 05:00:25;;;;;;;;;;;;;;;12.97;93.21;99495.84;5091675;28;19915;-19
2021/10/12 05:02:50;;;;;;;;;;;;;;;12.99;93.43;99490.25;5091707;28;19916;-19
2021/10/12 05:05:16;;;;;;;;;;;;;;;12.81;94.10;99497.56;5091395;28;19916;-19
2021/10/12 05:07:41;;;;;;;;;;;;;;;12.97;93.41;99495.84;5091872;28;19919;-20
2021/10/12 05:10:06;;;;;;;;;;;;;;;13.20;92.15;99500.19;5091642;28;19912;-20
2021/10/12 05:12:32;;;;;;;;;;;;;;;13.38;91.06;99500.94;5090487;28;20023;-20
2021/10/12 05:14:57;;;;;;;;;;;;;;;13.13;91.73;99504.91;5091286;28;20394;-20
2021/10/12 05:17:25;;;;;;;;;;;;;;;13.04;92.27;99498.38;5091314;28;19955;-20
2021/10/12 05:19:50;;;;;;;;;;;;;;;12.99;92.51;99484.91;5091432;28;19919;-19
2021/10/12 05:22:16;;;;;;;;;;;;;;;13.15;91.80;99501.97;5091574;28;19912;-19
2021/10/12 05:24:41;;;;;;;;;;;;;;;13.10;92.12;99505.41;5091248;28;19934;-20
2021/10/12 05:27:06;;;;;;;;;;;;;;;13.02;92.57;99492.47;5090995;28;19919;-20
2021/10/12 05:29:32;;;;;;;;;;;;;;;12.88;93.60;99492.00;5091020;28;19935;-20
2021/10/12 05:31:57;;;;;;;;;;;;;;;12.96;93.27;99485.41;5091216;28;19993;-20
2021/10/12 05:34:22;;;;;;;;;;;;;;;13.04;92.68;99469.72;5091096;28;19920;-20
2021/10/12 05:36:48;;;;;;;;;;;;;;;12.92;93.68;99484.31;5091150;28;19912;-19
2021/10/12 05:39:13;;;;;;;;;;;;;;;13.11;92.80;99480.25;5090867;28;19912;-19
2021/10/12 05:41:38;;;;;;;;;;;;;;;13.18;92.73;99475.53;5090996;28;19943;-20
2021/10/12 05:44:04;;;;;;;;;;;;;;;13.31;92.27;99484.25;5091058;28;19916;-19
2021/10/12 05:46:29;;;;;;;;;;;;;;;13.39;92.19;99481.13;5090849;28;20328;-19
2021/10/12 05:48:54;;;;;;;;;;;;;;;13.30;91.98;99483.47;5090851;28;19916;-20
2021/10/12 05:51:22;;;;;;;;;;;;;;;13.45;90.71;99496.19;5090915;28;19923;-20
2021/10/12 05:53:52;;;;;;;;;;;;;;;13.59;91.07;99485.91;5091075;28;19915;-20
2021/10/12 05:56:23;;;;;;;;;;;;;;;13.49;91.04;99497.31;5089189;28;19965;-20
2021/10/12 05:58:49;;;;;;;;;;;;;;;13.65;90.85;99496.41;5090556;28;19999;-20
2021/10/12 06:01:15;;;;;;;;;;;;;;;13.73;89.61;99497.00;5090157;28;20015;-20
2021/10/12 06:03:40;;;;;;;;;;;;;;;13.53;90.46;99497.63;5090678;28;19916;-20
2021/10/12 06:06:05;;;;;;;;;;;;;;;13.66;90.30;99503.38;5090644;28;19927;-21
2021/10/12 06:08:31;;;;;;;;;;;;;;;13.67;90.55;99498.84;5090365;28;19941;-20
2021/10/12 06:10:58;;;;;;;;;;;;;;;13.70;90.84;99503.69;5090492;28;19920;-20
2021/10/12 06:13:24;;;;;;;;;;;;;;;13.83;88.51;99497.09;5090629;28;19916;-20
2021/10/12 06:15:49;;;;;;;;;;;;;;;13.88;88.84;99502.50;5090219;28;19962;-20
2021/10/12 06:18:14;;;;;;;;;;;;;;;13.73;89.29;99513.06;5090317;28;19951;-20
2021/10/12 06:20:40;;;;;;;;;;;;;;;13.79;89.72;99515.56;5090277;28;19916;-20
2021/10/12 06:23:05;;;;;;;;;;;;;;;13.89;89.31;99514.84;5089794;28;19959;-21
2021/10/12 06:25:30;;;;;;;;;;;;;;;14.13;88.63;99523.38;5089990;28;19916;-20
2021/10/12 06:27:56;;;;;;;;;;;;;;;13.98;88.27;99526.72;5090026;28;19969;-20
2021/10/12 06:30:21;;;;;;;;;;;;;;;14.18;87.28;99511.88;5090201;28;19915;-20
2021/10/12 06:32:46;;;;;;;;;;;;;;;14.24;86.51;99522.41;5089974;28;19967;-20
2021/10/12 06:35:12;;;;;;;;;;;;;;;14.06;87.61;99512.84;5089791;28;20296;-19
2021/10/12 06:37:37;;;;;;;;;;;;;;;13.82;89.22;99511.56;5089944;28;19916;-19
2021/10/12 06:40:02;;;;;;;;;;;;;;;13.64;90.11;99500.13;5090499;28;19912;-19
2021/10/12 06:42:27;;;;;;;;;;;;;;;13.72;90.86;99500.75;5090023;28;20311;-21
2021/10/12 06:44:53;;;;;;;;;;;;;;;14.02;89.38;99489.50;5089969;28;20702;-20
2021/10/12 06:47:18;;;;;;;;;;;;;;;13.95;88.97;99496.94;5089470;28;19915;-19
2021/10/12 06:49:43;;;;;;;;;;;;;;;14.12;88.80;99494.13;5089902;28;19966;-20
2021/10/12 06:52:09;;;;;;;;;;;;;;;14.19;88.60;99505.44;5089779;28;19912;-20
2021/10/12 06:54:34;;;;;;;;;;;;;;;13.93;89.44;99497.19;5089437;28;20302;-19
2021/10/12 06:57:01;;;;;;;;;;;;;;;14.03;88.96;99489.22;5089406;28;19916;-19
2021/10/12 06:59:27;;;;;;;;;;;;;;;14.04;88.84;99490.06;5089657;28;19946;-19
2021/10/12 07:01:52;;;;;;;;;;;;;;;13.82;89.46;99490.94;5071544;28;19911;-18
2021/10/12 07:04:18;;;;;;;;;;;;;;;13.93;89.26;99497.19;5089677;28;19912;-19
2021/10/12 07:06:43;;;;;;;;;;;;;;;14.01;89.28;99498.59;5089928;28;19984;-19
2021/10/12 07:09:08;;;;;;;;;;;;;;;14.26;88.52;99500.66;5089266;28;19955;-19
2021/10/12 07:11:34;;;;;;;;;;;;;;;14.15;87.87;99501.66;5089300;28;20345;-19
2021/10/12 07:13:59;;;;;;;;;;;;;;;14.03;88.60;99499.94;5089467;28;19966;-19
2021/10/12 07:16:25;;;;;;;;;;;;;;;14.14;88.76;99497.34;5089662;28;19916;-19
2021/10/12 07:18:50;;;;;;;;;;;;;;;14.05;89.81;99489.78;5089630;28;19919;-18
2021/10/12 07:21:16;;;;;;;;;;;;;;;14.06;89.22;99491.41;5089349;28;19912;-19
2021/10/12 07:23:41;;;;;;;;;;;;;;;13.71;90.72;99483.03;5089379;28;20307;-19
2021/10/12 07:26:06;;;;;;;;;;;;;;;13.84;91.02;99488.00;5071109;28;19912;-19
2021/10/12 07:28:32;;;;;;;;;;;;;;;13.80;91.16;99486.91;5089132;28;19919;-19
2021/10/12 07:30:58;;;;;;;;;;;;;;;13.83;91.37;99486.38;5089063;28;20302;-21
2021/10/12 07:33:23;;;;;;;;;;;;;;;13.96;91.44;99496.69;5089380;28;20091;-19
2021/10/12 07:35:49;;;;;;;;;;;;;;;13.64;92.87;99489.41;5092210;28;20036;-19
2021/10/12 07:38:14;;;;;;;;;;;;;;;13.82;92.88;99506.22;5093036;28;19912;-19
2021/10/12 07:40:41;;;;;;;;;;;;;;;13.76;92.09;99507.22;5093235;28;19912;-19
2021/10/12 07:43:06;;;;;;;;;;;;;;;13.71;93.15;99505.31;5093002;28;19916;-19
2021/10/12 07:45:32;;;;;;;;;;;;;;;13.76;92.67;99497.31;5093205;28;19919;-19
2021/10/12 07:47:58;;;;;;;;;;;;;;;13.78;92.94;99494.38;5093698;28;19912;-19
2021/10/12 07:50:23;;;;;;;;;;;;;;;13.99;92.57;99493.47;5093274;28;19916;-19
2021/10/12 07:52:49;;;;;;;;;;;;;;;13.93;92.27;99489.13;5093350;28;20015;-20
2021/10/12 07:55:26;;;;;;;;;;;;;;;14.13;91.59;99493.88;5074957;28;20268;-19
2021/10/12 07:57:51;;;;;;;;;;;;;;;13.94;91.99;99490.78;5093222;28;20395;-19
2021/10/12 08:00:16;;;;;;;;;;;;;;;14.02;92.03;99495.66;5092856;28;19955;-19
2021/10/12 08:02:42;;;;;;;;;;;;;;;14.02;92.14;99489.50;5093170;28;19918;-19
2021/10/12 08:05:07;;;;;;;;;;;;;;;13.99;91.72;99479.28;5092817;28;19919;-19
2021/10/12 08:07:32;;;;;;;;;;;;;;;13.86;92.23;99477.84;5092806;28;19965;-19
2021/10/12 08:09:58;;;;;;;;;;;;;;;13.92;92.06;99479.50;5092819;28;19916;-19
2021/10/12 08:12:24;;;;;;;;;;;;;;;13.99;91.83;99484.63;5093243;28;19951;-19
2021/10/12 08:14:54;;;;;;;;;;;;;;;13.99;91.58;99474.72;5092738;28;19952;-19
2021/10/12 08:17:19;;;;;;;;;;;;;;;14.33;90.82;99471.75;5092628;28;19912;-20
2021/10/12 08:19:44;;;;;;;;;;;;;;;14.33;89.66;99479.81;5093071;28;19977;-19
2021/10/12 08:22:10;;;;;;;;;;;;;;;14.38;89.84;99476.34;5092795;28;20373;-20
2021/10/12 08:24:35;;;;;;;;;;;;;;;14.43;89.66;99484.44;5092392;28;19924;-19
2021/10/12 08:27:00;;;;;;;;;;;;;;;14.49;89.03;99482.59;5092104;28;19919;-19
2021/10/12 08:29:27;;;;;;;;;;;;;;;14.65;88.65;99487.81;5092376;28;20372;-19
2021/10/12 08:31:52;;;;;;;;;;;;;;;14.62;88.97;99479.47;5092585;28;19916;-19
2021/10/12 08:34:17;;;;;;;;;;;;;;;14.75;88.25;99476.34;5092245;28;19989;-19
2021/10/12 08:36:43;;;;;;;;;;;;;;;14.52;89.02;99476.72;5092448;28;19923;-19
2021/10/12 08:39:08;;;;;;;;;;;;;;;14.51;89.52;99475.91;5092051;28;19916;-19
2021/10/12 08:41:37;;;;;;;;;;;;;;;14.51;89.76;99464.38;5092056;28;19962;-19
2021/10/12 08:44:02;;;;;;;;;;;;;;;14.80;89.09;99452.19;5091914;28;20459;-19
2021/10/12 08:46:27;;;;;;;;;;;;;;;14.88;89.08;99447.41;5092003;28;19991;-19
2021/10/12 08:48:54;;;;;;;;;;;;;;;14.99;88.61;99422.19;5091980;28;19951;-19
2021/10/12 08:51:19;;;;;;;;;;;;;;;15.14;88.40;99433.00;5091639;28;19916;-19
2021/10/12 08:53:44;;;;;;;;;;;;;;;15.18;87.80;99435.94;5092141;28;20019;-19
2021/10/12 08:56:09;;;;;;;;;;;;;;;15.25;88.33;99431.94;5089101;28;20349;-20
2021/10/12 08:58:36;;;;;;;;;;;;;;;15.11;88.08;99425.47;5092062;28;19963;-19
2021/10/12 09:01:11;;;;;;;;;;;;;;;14.93;88.30;99429.44;5091699;28;19934;-18
2021/10/12 09:04:01;;;;;;;;;;;;;;;14.96;88.55;99433.47;5091990;28;20015;-19
2021/10/12 09:06:30;;;;;;;;;;;;;;;15.07;89.37;99429.75;5091690;28;19949;-19
2021/10/12 09:09:01;;;;;;;;;;;;;;;14.91;88.53;99431.56;5091679;28;20364;-19
2021/10/12 09:11:27;;;;;;;;;;;;;;;14.80;88.96;99430.72;5091840;28;19912;-19
2021/10/12 09:13:53;;;;;;;;;;;;;;;14.83;88.98;99429.38;5091487;28;19916;-19
2021/10/12 09:16:19;;;;;;;;;;;;;;;14.82;88.97;99433.16;5091389;28;19961;-19
2021/10/12 09:18:50;;;;;;;;;;;;;;;14.82;89.33;99427.78;5091627;28;19919;-19
2021/10/12 09:21:16;;;;;;;;;;;;;;;14.75;89.25;99433.41;5091033;28;19938;-19
2021/10/12 09:23:42;;;;;;;;;;;;;;;14.81;89.31;99426.97;5091573;28;19920;-19
2021/10/12 09:26:19;;;;;;;;;;;;;;;14.78;88.94;99422.13;5091420;28;19912;-19
2021/10/12 09:28:44;;;;;;;;;;;;;;;14.81;89.04;99423.47;5091021;28;19916;-20
2021/10/12 09:31:10;;;;;;;;;;;;;;;14.80;89.17;99428.03;5091022;28;19912;-19
2021/10/12 09:33:47;;;;;;;;;;;;;;;14.56;89.90;99418.81;5091784;28;20789;-19
2021/10/12 09:36:31;;;;;;;;;;;;;;;14.67;89.74;99415.13;5091065;28;19963;-19
2021/10/12 09:38:57;;;;;;;;;;;;;;;14.74;89.33;99410.31;5090922;28;19931;-19
2021/10/12 09:41:24;;;;;;;;;;;;;;;14.67;89.63;99409.75;5090984;28;19912;-19
2021/10/12 09:43:49;;;;;;;;;;;;;;;14.56;89.94;99403.50;5091029;28;20010;-19
2021/10/12 09:46:30;;;;;;;;;;;;;;;14.91;89.05;99403.91;5090989;28;19995;-20
2021/10/12 09:49:00;;;;;;;;;;;;;;;15.06;88.35;99402.09;5090863;28;19919;-19
2021/10/12 09:51:25;;;;;;;;;;;;;;;14.93;88.03;99396.41;5072757;28;19912;-19
2021/10/12 09:53:50;;;;;;;;;;;;;;;14.98;88.64;99393.75;5090753;28;19912;-19
2021/10/12 09:56:16;;;;;;;;;;;;;;;14.92;88.87;99392.13;5090680;28;20598;-19
2021/10/12 09:58:43;;;;;;;;;;;;;;;15.00;88.22;99394.28;5089931;28;19944;-19
2021/10/12 10:01:08;;;;;;;;;;;;;;;14.84;88.98;99394.22;5090276;28;19916;-19
2021/10/12 10:03:34;;;;;;;;;;;;;;;14.96;87.88;99391.31;5090523;28;20307;-19
2021/10/12 10:06:03;;;;;;;;;;;;;;;15.21;86.95;99387.88;5090647;28;19912;-19
2021/10/12 10:08:29;;;;;;;;;;;;;;;15.18;87.38;99387.59;5090389;28;19935;-19
2021/10/12 10:10:55;;;;;;;;;;;;;;;15.18;87.63;99379.53;5090372;28;19944;-19
2021/10/12 10:13:20;;;;;;;;;;;;;;;15.32;87.33;99374.47;5072011;28;20467;-19
2021/10/12 10:15:46;;;;;;;;;;;;;;;15.31;86.58;99372.88;5072043;28;20003;-19
2021/10/12 10:18:11;;;;;;;;;;;;;;;15.03;87.98;99369.59;5090271;28;20026;-19
2021/10/12 10:20:37;;;;;;;;;;;;;;;14.75;89.49;99363.63;5072209;28;20389;-19
2021/10/12 10:23:02;;;;;;;;;;;;;;;14.47;90.01;99356.75;5090379;28;19952;-19
2021/10/12 10:25:29;;;;;;;;;;;;;;;14.35;91.67;99359.66;5090282;28;19959;-19
2021/10/12 10:27:55;;;;;;;;;;;;;;;14.42;91.92;99359.41;5072101;28;19958;-19
2021/10/12 10:30:33;;;;;;;;;;;;;;;14.24;91.28;99358.81;5090160;28;19955;-19
2021/10/12 10:32:58;;;;;;;;;;;;;;;14.41;91.23;99355.94;5090064;28;20015;-19
2021/10/12 10:35:44;;;;;;;;;;;;;;;14.29;90.99;99354.53;5090088;28;19998;-19
2021/10/12 10:38:26;;;;;;;;;;;;;;;14.11;91.97;99343.16;5089835;28;19920;-19
2021/10/12 10:40:52;;;;;;;;;;;;;;;14.32;91.81;99345.94;5090100;28;19955;-19
2021/10/12 10:43:17;;;;;;;;;;;;;;;14.56;91.34;99330.25;5071483;28;19958;-19
2021/10/12 10:45:49;;;;;;;;;;;;;;;14.67;90.91;99339.97;5090382;28;19916;-20
2021/10/12 10:48:15;;;;;;;;;;;;;;;14.75;90.31;99328.72;5090056;28;19912;-19
2021/10/12 10:50:41;;;;;;;;;;;;;;;14.83;90.10;99314.78;5089433;28;19919;-19
2021/10/12 10:53:09;;;;;;;;;;;;;;;14.36;91.96;99312.97;5089304;28;19916;-19
2021/10/12 10:55:38;;;;;;;;;;;;;;;14.12;92.54;99309.94;5089380;28;20331;-19
2021/10/12 10:58:03;;;;;;;;;;;;;;;13.71;94.05;99311.56;5089684;28;19916;-19
2021/10/12 11:00:31;;;;;;;;;;;;;;;13.48;92.84;99324.25;5071441;28;19916;-19
2021/10/12 11:02:56;;;;;;;;;;;;;;;13.19;93.75;99316.47;5105288;28;19919;-19
2021/10/12 11:05:34;;;;;;;;;;;;;;;13.10;94.04;99311.84;5089206;28;19912;-19
2021/10/12 11:08:06;;;;;;;;;;;;;;;12.94;94.95;99308.22;5089490;28;19912;-19
2021/10/12 11:10:32;;;;;;;;;;;;;;;13.00;94.65;99304.53;5089679;28;19916;-19
2021/10/12 11:12:57;;;;;;;;;;;;;;;12.94;94.52;99298.31;5089107;28;19976;-20
2021/10/12 11:15:22;;;;;;;;;;;;;;;12.88;93.40;99295.88;5089604;28;19912;-19
2021/10/12 11:18:06;;;;;;;;;;;;;;;12.81;93.99;99293.38;5071352;28;19922;-19
2021/10/12 11:20:48;;;;;;;;;;;;;;;12.63;95.35;99291.88;5089353;28;19916;-19
2021/10/12 11:23:13;;;;;;;;;;;;;;;12.53;95.09;99297.09;5089115;28;19999;-19
2021/10/12 11:25:41;;;;;;;;;;;;;;;12.46;95.62;99292.75;5089178;28;20011;-19
2021/10/12 11:28:07;;;;;;;;;;;;;;;12.46;94.47;99290.09;5071436;28;20020;-19
2021/10/12 11:30:34;;;;;;;;;;;;;;;12.45;95.40;99301.81;5089442;28;19943;-20
2021/10/12 11:33:01;;;;;;;;;;;;;;;12.25;95.50;99291.69;5089033;28;19920;-19
2021/10/12 11:35:38;;;;;;;;;;;;;;;12.21;95.24;99290.56;5089293;28;19916;-19
2021/10/12 11:38:04;;;;;;;;;;;;;;;12.22;95.89;99286.84;5088733;28;19911;-19
2021/10/12 11:40:30;;;;;;;;;;;;;;;12.27;95.67;99283.41;5089509;28;19912;-19
2021/10/12 11:43:03;;;;;;;;;;;;;;;12.20;95.19;99288.16;5089195;28;20391;-19
2021/10/12 11:45:29;;;;;;;;;;;;;;;12.38;95.46;99285.19;5089436;28;19912;-18
2021/10/12 11:47:54;;;;;;;;;;;;;;;12.32;96.09;99275.47;5071350;28;20295;-19
2021/10/12 11:50:19;;;;;;;;;;;;;;;12.29;96.44;99281.31;5088857;28;19970;-19
2021/10/12 11:52:45;;;;;;;;;;;;;;;12.11;95.75;99270.94;5089317;28;20010;-19
2021/10/12 11:55:11;;;;;;;;;;;;;;;12.27;94.98;99272.72;5088677;28;20299;-19
2021/10/12 11:57:37;;;;;;;;;;;;;;;12.29;94.71;99270.63;5089119;28;20284;-19
2021/10/12 12:00:03;;;;;;;;;;;;;;;12.29;94.78;99270.63;5088980;28;20455;-19
2021/10/12 12:02:31;;;;;;;;;;;;;;;12.28;95.57;99274.38;5089017;28;19919;-19
2021/10/12 12:04:59;;;;;;;;;;;;;;;12.48;93.92;99279.13;5089143;28;19916;-19
2021/10/12 12:07:28;;;;;;;;;;;;;;;12.13;95.46;99276.84;5089098;28;19916;-19
2021/10/12 12:09:53;;;;;;;;;;;;;;;12.14;96.22;99281.13;5070815;28;19918;-20
2021/10/12 12:12:18;;;;;;;;;;;;;;;12.11;95.50;99279.75;5070771;28;19916;-19
2021/10/12 12:14:44;;;;;;;;;;;;;;;12.22;95.09;99278.81;5088792;28;19969;-20
2021/10/12 12:17:09;;;;;;;;;;;;;;;12.21;95.16;99273.72;5070552;28;20007;-19
2021/10/12 12:19:41;;;;;;;;;;;;;;;11.92;94.34;99271.22;5088595;28;20334;-20
2021/10/12 12:22:13;;;;;;;;;;;;;;;11.71;96.36;99277.28;5091650;28;19949;-20
2021/10/12 12:24:40;;;;;;;;;;;;;;;11.86;95.45;99277.53;5092396;28;19969;-20
2021/10/12 12:27:05;;;;;;;;;;;;;;;11.99;95.01;99276.38;5073976;28;20357;-19
2021/10/12 12:29:31;;;;;;;;;;;;;;;11.84;95.35;99274.28;5092482;28;19916;-19
2021/10/12 12:31:57;;;;;;;;;;;;;;;11.73;95.64;99277.88;5092269;28;20288;-19
2021/10/12 12:34:26;;;;;;;;;;;;;;;11.71;95.41;99263.94;5092294;28;19959;-19
2021/10/12 12:36:51;;;;;;;;;;;;;;;11.76;96.05;99261.34;5092129;28;19916;-20
2021/10/12 12:39:16;;;;;;;;;;;;;;;11.67;95.74;99266.31;5091760;28;19916;-19
2021/10/12 12:41:42;;;;;;;;;;;;;;;11.76;95.33;99266.69;5092375;28;19916;-19
2021/10/12 12:44:07;;;;;;;;;;;;;;;11.74;95.40;99268.81;5092141;28;20296;-20